createdAt,value
2022-12-25T00:02:09.996Z,5.65
2022-12-25T00:05:14.156Z,4.82
2022-12-25T00:11:20.680Z,8.30
2022-12-25T00:14:23.585Z,7.70
2022-12-25T00:17:26.414Z,9.25
2022-12-25T00:20:30.568Z,5.45
2022-12-25T00:26:36.471Z,6.57
2022-12-25T00:29:39.287Z,7.35
2022-12-25T00:32:42.147Z,9.57
2022-12-25T00:35:46.581Z,9.02
2022-12-25T00:38:49.505Z,8.07
2022-12-25T00:42:10.099Z,5.18
2022-12-25T00:45:14.250Z,7.43
2022-12-25T00:48:18.677Z,9.70
2022-12-25T00:51:22.868Z,9.02
2022-12-25T00:57:28.403Z,8.20
2022-12-25T01:00:31.580Z,11.85
2022-12-25T01:03:34.416Z,9.70
2022-12-25T01:06:39.134Z,10.30
2022-12-25T01:10:00.436Z,6.65
2022-12-25T01:13:03.757Z,8.10
2022-12-25T01:16:07.845Z,7.00
2022-12-25T01:22:16.224Z,7.57
2022-12-25T01:25:19.102Z,8.52
2022-12-25T01:28:21.953Z,10.27
2022-12-25T01:31:26.368Z,10.02
2022-12-25T01:34:29.379Z,9.93
2022-12-25T01:37:33.580Z,13.57
2022-12-25T01:40:36.546Z,14.38
2022-12-25T01:44:06.567Z,14.18
2022-12-25T01:47:09.357Z,13.98
2022-12-25T01:50:12.280Z,17.02
2022-12-25T01:53:16.817Z,14.48
2022-12-25T01:56:20.306Z,17.13
2022-12-25T01:59:26.855Z,13.98
2022-12-25T02:02:30.717Z,17.65
2022-12-25T02:05:35.919Z,13.68
2022-12-25T02:08:42.321Z,14.77
2022-12-25T02:11:58.322Z,14.43
2022-12-25T02:15:06.910Z,13.02
2022-12-25T02:18:20.346Z,11.70
2022-12-25T02:21:52.970Z,11.17
2022-12-25T02:25:14.445Z,12.63
2022-12-25T02:28:24.098Z,12.82
2022-12-25T02:31:39.299Z,14.07
2022-12-25T02:34:50.090Z,12.10
2022-12-25T02:38:01.781Z,17.80
2022-12-25T02:41:16.195Z,14.20
2022-12-25T02:48:02.552Z,12.20
2022-12-25T02:51:28.259Z,12.18
2022-12-25T02:54:53.484Z,12.63
2022-12-25T02:58:18.891Z,11.25
2022-12-25T03:01:48.537Z,15.00
2022-12-25T03:05:12.909Z,16.02
2022-12-25T03:08:23.256Z,21.58
2022-12-25T03:11:32.144Z,16.38
2022-12-25T03:14:52.892Z,18.13
2022-12-25T03:18:02.558Z,21.50
2022-12-25T03:21:24.388Z,17.63
2022-12-25T03:24:45.182Z,15.98
2022-12-25T03:27:53.395Z,19.55
2022-12-25T03:31:13.522Z,14.82
2022-12-25T03:34:51.286Z,16.02
2022-12-25T03:38:52.105Z,22.08
2022-12-25T03:42:26.988Z,34.15
2022-12-25T03:49:26.114Z,36.90
2022-12-25T03:52:51.985Z,28.15
2022-12-25T03:56:14.948Z,37.78
2022-12-25T03:59:39.479Z,59.22
2022-12-25T04:03:01.145Z,39.22
2022-12-25T04:06:21.871Z,42.53
2022-12-25T04:09:44.123Z,54.58
2022-12-25T04:13:07.540Z,23.95
2022-12-25T04:16:28.454Z,30.25
2022-12-25T04:19:49.204Z,27.20
2022-12-25T04:23:10.018Z,26.13
2022-12-25T04:26:32.134Z,25.15
2022-12-25T04:29:53.263Z,23.10
2022-12-25T04:33:16.904Z,37.55
2022-12-25T04:36:19.841Z,34.45
2022-12-25T04:39:23.084Z,33.65
2022-12-25T04:42:27.484Z,21.90
2022-12-25T04:45:30.747Z,26.85
2022-12-25T04:48:37.136Z,55.83
2022-12-25T04:51:40.218Z,26.55
2022-12-25T04:54:43.362Z,39.00
2022-12-25T04:57:47.761Z,34.53
2022-12-25T05:00:50.724Z,29.25
2022-12-25T05:03:54.057Z,68.35
2022-12-25T05:06:57.291Z,55.72
2022-12-25T05:10:00.597Z,41.28
2022-12-25T05:13:04.929Z,45.30
2022-12-25T05:16:09.808Z,51.75
2022-12-25T05:19:13.389Z,47.10
2022-12-25T05:22:16.555Z,45.50
2022-12-25T05:25:20.392Z,79.20
2022-12-25T05:31:28.174Z,38.58
2022-12-25T05:34:31.421Z,42.50
2022-12-25T05:37:34.577Z,47.78
2022-12-25T05:40:41.038Z,56.60
2022-12-25T05:43:45.613Z,50.67
2022-12-25T05:46:48.776Z,60.72
2022-12-25T05:49:51.877Z,52.70
2022-12-25T05:52:54.868Z,70.32
2022-12-25T05:56:03.146Z,53.97
2022-12-25T05:59:07.602Z,56.15
2022-12-25T06:02:10.890Z,39.22
2022-12-25T06:05:14.575Z,53.03
2022-12-25T06:08:17.768Z,86.28
2022-12-25T06:11:20.955Z,90.47
2022-12-25T06:14:25.464Z,44.70
2022-12-25T06:17:29.210Z,50.65
2022-12-25T06:20:32.743Z,77.13
2022-12-25T06:23:36.494Z,25.70
2022-12-25T06:26:40.020Z,88.55
2022-12-25T06:29:44.745Z,72.40
2022-12-25T06:32:48.458Z,34.20
2022-12-25T06:35:51.646Z,43.03
2022-12-25T06:38:55.329Z,84.00
2022-12-25T06:41:58.689Z,62.25
2022-12-25T06:45:03.376Z,52.90
2022-12-25T06:48:07.328Z,103.57
2022-12-25T06:51:10.589Z,78.22
2022-12-25T06:54:13.706Z,50.43
2022-12-25T06:57:17.475Z,66.10
2022-12-25T07:00:22.696Z,29.92
2022-12-25T07:03:30.649Z,33.90
2022-12-25T07:06:34.071Z,27.83
2022-12-25T07:09:38.851Z,41.83
2022-12-25T07:12:42.671Z,59.17
2022-12-25T07:15:47.208Z,82.47
2022-12-25T07:18:50.585Z,47.38
2022-12-25T07:21:54.013Z,37.37
2022-12-25T07:24:57.842Z,32.50
2022-12-25T07:28:00.827Z,28.88
2022-12-25T07:31:08.068Z,28.80
2022-12-25T07:34:11.395Z,27.80
2022-12-25T07:37:14.890Z,16.43
2022-12-25T07:40:19.001Z,58.75
2022-12-25T07:43:22.129Z,32.42
2022-12-25T07:46:26.871Z,29.90
2022-12-25T07:49:30.120Z,48.55
2022-12-25T07:52:38.025Z,27.57
2022-12-25T07:55:44.608Z,38.15
2022-12-25T07:58:48.589Z,53.10
2022-12-25T08:01:53.115Z,23.38
2022-12-25T08:04:56.528Z,18.73
2022-12-25T08:07:59.821Z,18.63
2022-12-25T08:11:03.126Z,31.23
2022-12-25T08:14:08.195Z,19.67
2022-12-25T08:17:12.873Z,25.77
2022-12-25T08:20:16.218Z,38.33
2022-12-25T08:23:19.905Z,28.00
2022-12-25T08:26:24.430Z,31.95
2022-12-25T08:29:28.881Z,18.42
2022-12-25T08:32:35.487Z,44.03
2022-12-25T08:35:39.003Z,46.90
2022-12-25T08:38:42.958Z,23.95
2022-12-25T08:41:46.022Z,21.65
2022-12-25T08:44:49.193Z,19.98
2022-12-25T08:47:57.808Z,23.80
2022-12-25T08:51:01.732Z,22.02
2022-12-25T08:54:05.214Z,32.63
2022-12-25T08:57:08.640Z,26.73
2022-12-25T09:00:13.449Z,22.17
2022-12-25T09:03:17.942Z,28.02
2022-12-25T09:06:21.093Z,23.45
2022-12-25T09:09:28.412Z,21.50
2022-12-25T09:12:31.832Z,19.92
2022-12-25T09:15:35.191Z,19.50
2022-12-25T09:18:40.362Z,17.13
2022-12-25T09:21:43.750Z,17.85
2022-12-25T09:24:46.850Z,12.85
2022-12-25T09:27:50.010Z,16.85
2022-12-25T09:30:54.591Z,17.20
2022-12-25T09:33:59.986Z,18.23
2022-12-25T09:37:03.693Z,25.90
2022-12-25T09:40:08.905Z,17.92
2022-12-25T09:43:18.687Z,17.27
2022-12-25T09:46:30.177Z,13.82
2022-12-25T09:49:50.287Z,16.52
2022-12-25T09:53:02.063Z,16.17
2022-12-25T09:56:12.512Z,14.25
2022-12-25T09:59:26.395Z,20.92
2022-12-25T10:02:55.747Z,14.82
2022-12-25T10:06:19.650Z,20.08
2022-12-25T10:09:47.494Z,17.00
2022-12-25T10:13:10.281Z,14.07
2022-12-25T10:16:25.331Z,14.50
2022-12-25T10:19:49.278Z,26.30
2022-12-25T10:23:00.401Z,22.80
2022-12-25T10:26:05.289Z,18.35
2022-12-25T10:29:15.209Z,14.00
2022-12-25T10:32:18.213Z,25.02
2022-12-25T10:35:26.716Z,20.63
2022-12-25T10:38:40.466Z,16.75
2022-12-25T10:42:10.811Z,21.92
2022-12-25T10:45:14.002Z,19.33
2022-12-25T10:48:24.219Z,26.73
2022-12-25T10:51:31.143Z,34.97
2022-12-25T10:54:37.416Z,33.50
2022-12-25T10:57:47.377Z,28.30
2022-12-25T11:00:56.228Z,34.92
2022-12-25T11:03:59.759Z,28.92
2022-12-25T11:07:14.857Z,27.80
2022-12-25T11:10:24.460Z,24.58
2022-12-25T11:13:31.622Z,20.75
2022-12-25T11:16:40.230Z,21.27
2022-12-25T11:19:55.385Z,45.65
2022-12-25T11:22:58.622Z,26.92
2022-12-25T11:26:10.263Z,33.57
2022-12-25T11:29:25.643Z,48.83
2022-12-25T11:32:33.320Z,40.35
2022-12-25T11:35:47.631Z,34.97
2022-12-25T11:38:51.957Z,40.90
2022-12-25T11:42:02.939Z,40.22
2022-12-25T11:45:13.193Z,29.08
2022-12-25T11:48:26.273Z,44.38
2022-12-25T11:51:36.648Z,45.05
2022-12-25T11:54:52.227Z,51.10
2022-12-25T11:58:15.794Z,74.18
2022-12-25T12:01:35.648Z,49.28
2022-12-25T12:04:44.738Z,46.22
2022-12-25T12:07:58.880Z,38.17
2022-12-25T12:11:18.543Z,40.78
2022-12-25T12:14:48.900Z,43.83
2022-12-25T12:17:52.560Z,37.92
2022-12-25T12:21:09.597Z,20.48
2022-12-25T12:24:19.675Z,28.42
2022-12-25T12:27:37.649Z,37.65
2022-12-25T12:30:43.278Z,38.17
2022-12-25T12:33:54.546Z,24.55
2022-12-25T12:37:02.808Z,41.50
2022-12-25T12:40:11.535Z,34.58
2022-12-25T12:43:36.317Z,40.33
2022-12-25T12:50:00.694Z,21.65
2022-12-25T12:53:29.476Z,32.60
2022-12-25T12:56:33.047Z,37.08
2022-12-25T12:59:43.530Z,32.22
2022-12-25T13:03:29.258Z,32.33
2022-12-25T13:06:41.852Z,27.48
2022-12-25T13:10:04.516Z,25.20
2022-12-25T13:13:18.436Z,32.63
2022-12-25T13:16:28.549Z,30.67
2022-12-25T13:19:33.291Z,22.90
2022-12-25T13:22:37.725Z,33.38
2022-12-25T13:25:40.768Z,37.67
2022-12-25T13:33:21.397Z,30.38
2022-12-25T13:36:40.153Z,37.05
2022-12-25T13:39:52.163Z,29.02
2022-12-25T13:43:22.095Z,30.05
2022-12-25T13:46:28.410Z,38.90
2022-12-25T13:49:50.493Z,28.05
2022-12-25T13:52:58.586Z,25.63
2022-12-25T13:56:02.415Z,44.05
2022-12-25T13:59:05.898Z,33.65
2022-12-25T14:02:20.276Z,46.30
2022-12-25T14:05:42.356Z,20.65
2022-12-25T14:08:49.487Z,47.55
2022-12-25T14:11:54.433Z,51.92
2022-12-25T14:15:00.273Z,49.90
2022-12-25T14:18:03.885Z,33.63
2022-12-25T14:21:11.637Z,50.90
2022-12-25T14:24:18.108Z,39.85
2022-12-25T14:27:25.049Z,31.00
2022-12-25T14:30:32.773Z,39.28
2022-12-25T14:33:41.600Z,45.35
2022-12-25T14:36:45.002Z,27.55
2022-12-25T14:39:58.462Z,34.95
2022-12-25T14:43:05.432Z,31.53
2022-12-25T14:46:09.079Z,24.42
2022-12-25T14:49:25.122Z,25.92
2022-12-25T14:52:32.035Z,32.15
2022-12-25T14:55:37.035Z,26.77
2022-12-25T14:58:47.587Z,28.98
2022-12-25T15:01:55.504Z,29.45
2022-12-25T15:04:58.719Z,36.20
2022-12-25T15:08:18.482Z,26.03
2022-12-25T15:11:23.297Z,26.08
2022-12-25T15:14:27.630Z,24.25
2022-12-25T15:17:33.805Z,25.20
2022-12-25T15:20:37.061Z,24.10
2022-12-25T15:23:41.248Z,32.13
2022-12-25T15:33:16.593Z,27.87
2022-12-25T15:36:20.445Z,44.92
2022-12-25T15:39:23.692Z,31.50
2022-12-25T15:42:28.111Z,31.20
2022-12-25T15:45:32.298Z,28.63
2022-12-25T15:48:35.837Z,28.20
2022-12-25T15:51:39.452Z,27.48
2022-12-25T15:54:42.631Z,27.40
2022-12-25T15:57:48.569Z,25.77
2022-12-25T16:00:53.177Z,32.10
2022-12-25T16:03:56.426Z,31.83
2022-12-25T16:07:01.104Z,30.20
2022-12-25T16:10:04.468Z,27.40
2022-12-25T16:13:37.499Z,29.13
2022-12-25T16:16:41.076Z,30.25
2022-12-25T16:19:45.332Z,28.23
2022-12-25T16:22:48.955Z,24.92
2022-12-25T16:25:52.506Z,29.65
2022-12-25T16:28:56.922Z,30.90
2022-12-25T16:32:00.509Z,27.90
2022-12-25T16:35:03.613Z,33.83
2022-12-25T16:38:06.917Z,28.60
2022-12-25T16:41:12.312Z,24.60
2022-12-25T16:44:23.222Z,23.27
2022-12-25T16:47:26.504Z,21.73
2022-12-25T16:50:29.899Z,26.77
2022-12-25T16:53:33.790Z,25.63
2022-12-25T16:56:38.392Z,24.75
2022-12-25T16:59:55.337Z,28.08
2022-12-25T17:02:58.598Z,30.95
2022-12-25T17:06:02.994Z,25.43
2022-12-25T17:09:07.036Z,41.00
2022-12-25T17:12:10.919Z,23.95
2022-12-25T17:15:15.306Z,26.77
2022-12-25T17:18:21.837Z,27.00
2022-12-25T17:21:26.388Z,24.88
2022-12-25T17:24:29.940Z,22.40
2022-12-25T17:27:33.055Z,22.67
2022-12-25T17:30:37.713Z,24.65
2022-12-25T17:33:43.488Z,24.73
2022-12-25T17:36:46.941Z,24.80
2022-12-25T17:39:49.967Z,25.92
2022-12-25T17:42:53.917Z,28.52
2022-12-25T17:45:58.354Z,22.42
2022-12-25T17:49:03.105Z,28.88
2022-12-25T17:52:06.291Z,25.67
2022-12-25T17:55:10.399Z,22.40
2022-12-25T18:01:20.866Z,30.55
2022-12-25T18:04:25.029Z,29.08
2022-12-25T18:07:31.482Z,25.15
2022-12-25T18:10:38.654Z,29.70
2022-12-25T18:13:44.788Z,25.40
2022-12-25T18:16:50.388Z,24.88
2022-12-25T18:19:54.332Z,25.75
2022-12-25T18:22:58.360Z,18.13
2022-12-25T18:26:03.512Z,21.63
2022-12-25T18:29:07.599Z,25.88
2022-12-25T18:32:12.245Z,24.05
2022-12-25T18:35:15.309Z,24.92
2022-12-25T18:38:18.458Z,20.55
2022-12-25T18:41:23.359Z,26.63
2022-12-25T18:44:26.433Z,25.30
2022-12-25T18:47:31.048Z,20.90
2022-12-25T18:50:34.926Z,25.55
2022-12-25T18:53:38.636Z,24.55
2022-12-25T18:56:41.866Z,26.88
2022-12-25T18:59:49.647Z,21.33
2022-12-25T19:02:58.035Z,23.70
2022-12-25T19:06:01.195Z,22.08
2022-12-25T19:09:09.431Z,23.88
2022-12-25T19:12:12.655Z,20.48
2022-12-25T19:15:21.985Z,19.50
2022-12-25T19:18:26.695Z,24.75
2022-12-25T19:21:30.679Z,22.35
2022-12-25T19:24:33.925Z,24.85
2022-12-25T19:27:37.178Z,28.03
2022-12-25T19:30:41.213Z,25.43
2022-12-25T19:33:46.923Z,26.48
2022-12-25T19:36:50.270Z,31.67
2022-12-25T19:39:53.290Z,24.73
2022-12-25T19:42:56.316Z,24.98
2022-12-25T19:45:59.523Z,23.55
2022-12-25T19:49:04.916Z,25.17
2022-12-25T19:52:08.730Z,22.20
2022-12-25T19:55:11.748Z,23.23
2022-12-25T19:58:15.386Z,23.73
2022-12-25T20:01:22.615Z,27.63
2022-12-25T20:04:27.010Z,20.80
2022-12-25T20:07:30.077Z,25.20
2022-12-25T20:10:33.375Z,37.53
2022-12-25T20:13:36.762Z,20.37
2022-12-25T20:16:41.801Z,23.40
2022-12-25T20:19:46.174Z,22.92
2022-12-25T20:22:49.596Z,22.00
2022-12-25T20:25:53.308Z,28.27
2022-12-25T20:28:58.572Z,17.75
2022-12-25T20:32:02.014Z,18.98
2022-12-25T20:35:07.831Z,20.15
2022-12-25T20:38:10.815Z,24.58
2022-12-25T20:41:27.929Z,19.25
2022-12-25T20:44:31.769Z,24.30
2022-12-25T20:47:37.122Z,29.20
2022-12-25T20:50:42.493Z,18.88
2022-12-25T20:53:46.370Z,21.33
2022-12-25T20:56:50.487Z,26.52
2022-12-25T21:02:58.260Z,23.40
2022-12-25T21:06:03.131Z,20.20
2022-12-25T21:09:06.623Z,20.52
2022-12-25T21:12:10.094Z,20.35
2022-12-25T21:15:15.706Z,21.27
2022-12-25T21:18:21.976Z,23.70
2022-12-25T21:21:26.790Z,22.63
2022-12-25T21:24:29.998Z,22.40
2022-12-25T21:27:33.044Z,27.02
2022-12-25T21:30:38.234Z,28.20
2022-12-25T21:33:52.869Z,26.75
2022-12-25T21:36:57.710Z,24.20
2022-12-25T21:40:01.168Z,32.17
2022-12-25T21:43:05.451Z,26.45
2022-12-25T21:46:11.207Z,21.40
2022-12-25T21:49:35.235Z,30.35
2022-12-25T21:52:39.173Z,30.30
2022-12-25T21:55:42.331Z,29.65
2022-12-25T21:58:45.433Z,34.28
2022-12-25T22:01:49.932Z,29.30
2022-12-25T22:04:53.146Z,29.42
2022-12-25T22:07:57.118Z,25.83
2022-12-25T22:11:03.961Z,26.58
2022-12-25T22:14:51.380Z,20.48
2022-12-25T22:18:05.861Z,22.05
2022-12-25T22:21:08.945Z,15.88
2022-12-25T22:24:13.449Z,19.80
2022-12-25T22:27:17.295Z,20.67
2022-12-25T22:30:22.894Z,17.40
2022-12-25T22:33:27.960Z,18.75
2022-12-25T22:36:30.971Z,18.50
2022-12-25T22:39:36.484Z,20.27
2022-12-25T22:42:39.735Z,20.48
2022-12-25T22:45:42.754Z,16.20
2022-12-25T22:48:45.717Z,20.02
2022-12-25T22:51:50.866Z,13.85
2022-12-25T22:54:55.267Z,17.35
2022-12-25T22:57:58.588Z,12.18
2022-12-25T23:01:02.027Z,15.80
2022-12-25T23:04:07.641Z,17.33
2022-12-25T23:07:14.269Z,11.98
2022-12-25T23:10:18.838Z,13.98
2022-12-25T23:13:39.523Z,12.73
2022-12-25T23:16:43.414Z,13.38
2022-12-25T23:20:04.506Z,11.32
2022-12-25T23:23:25.341Z,10.70
2022-12-25T23:26:29.700Z,9.98
2022-12-25T23:29:39.369Z,8.68
2022-12-25T23:32:43.647Z,11.70
2022-12-25T23:35:46.698Z,10.90
2022-12-25T23:38:49.837Z,9.73
2022-12-25T23:41:54.345Z,10.23
2022-12-25T23:44:57.612Z,11.90
2022-12-25T23:48:01.709Z,9.88
2022-12-25T23:51:06.540Z,9.68
2022-12-25T23:54:11.020Z,10.77
2022-12-25T23:57:15.536Z,9.30
